Time;durP1;ratioP1;P1;durP2;ratioP2;P2;SDS_P1;SDS_P2;PMS_P1;PMS_P2;Temp;Humidity;BMP_temperature;BMP_pressure;BME280_temperature;BME280_humidity;BME280_pressure;Samples;Min_cycle;Max_cycle;Signal;HPM_P1;HPM_P2
2023/05/27 00:00:20;;;;;;;;;9.00;8.00;;;;;19.46;44.81;101789.78;2062903;28;46252;-60
2023/05/27 00:01:21;;;;;;;;;11.67;9.67;;;;;19.44;44.79;101786.25;2063028;28;45588;-60
2023/05/27 00:02:21;;;;;;;;;10.75;9.50;;;;;19.43;44.33;101788.06;2062410;28;46758;-59
2023/05/27 00:03:21;;;;;;;;;7.50;7.50;;;;;19.41;44.40;101789.94;2062712;28;46162;-60
2023/05/27 00:04:22;;;;;;;;;12.00;10.00;;;;;19.40;44.69;101782.81;2062315;28;46358;-60
2023/05/27 00:05:22;;;;;;;;;10.00;10.00;;;;;19.39;44.42;101786.44;2062414;28;46452;-60
2023/05/27 00:06:22;;;;;;;;;8.33;8.00;;;;;19.37;44.46;101786.53;2062976;28;45574;-60
2023/05/27 00:07:23;;;;;;;;;12.25;8.00;;;;;19.36;44.33;101783.91;2062750;28;45591;-60
2023/05/27 00:08:23;;;;;;;;;9.25;7.50;;;;;19.34;44.30;101788.47;2063162;28;45449;-59
2023/05/27 00:09:24;;;;;;;;;8.00;8.00;;;;;19.32;44.61;101784.97;2063091;28;45937;-61
2023/05/27 00:10:24;;;;;;;;;8.50;8.00;;;;;19.32;44.65;101787.66;2071859;28;45656;-61
2023/05/27 00:11:25;;;;;;;;;9.00;9.00;;;;;19.30;44.53;101786.81;2071773;28;46447;-60
2023/05/27 00:12:25;;;;;;;;;6.67;6.67;;;;;19.30;44.49;101789.50;2071789;28;45930;-60
2023/05/27 00:13:25;;;;;;;;;9.25;8.00;;;;;19.27;44.80;101784.25;2072069;28;46083;-60
2023/05/27 00:14:26;;;;;;;;;9.75;9.75;;;;;19.26;44.58;101785.22;2072066;28;46204;-60
2023/05/27 00:15:26;;;;;;;;;8.67;7.33;;;;;19.25;44.54;101778.94;2072489;28;45738;-59
2023/05/27 00:16:27;;;;;;;;;11.00;10.00;;;;;19.26;44.75;101787.91;2071747;28;45650;-61
2023/05/27 00:17:28;;;;;;;;;8.50;8.50;;;;;19.24;44.54;101784.41;2071699;28;46479;-59
2023/05/27 00:18:28;;;;;;;;;9.00;9.00;;;;;19.23;44.76;101783.53;2071848;28;46407;-61
2023/05/27 00:19:30;;;;;;;;;12.67;10.00;;;;;19.25;44.50;101783.47;2071843;28;45546;-60
2023/05/27 00:20:30;;;;;;;;;7.75;7.75;;;;;19.26;44.48;101787.91;2071960;28;47078;-59
2023/05/27 00:21:31;;;;;;;;;7.67;6.67;;;;;19.26;44.54;101782.50;2071751;28;46981;-60
2023/05/27 00:22:32;;;;;;;;;9.00;8.75;;;;;19.26;44.44;101785.22;2072243;28;46215;-60
2023/05/27 00:23:32;;;;;;;;;10.60;9.40;;;;;19.26;44.43;101782.50;2072492;28;46016;-64
2023/05/27 00:24:36;;;;;;;;;10.75;7.00;;;;;19.24;44.43;101785.28;2071214;28;46085;-60
2023/05/27 00:25:36;;;;;;;;;8.50;8.50;;;;;19.24;44.95;101790.66;2070921;28;46590;-61
2023/05/27 00:26:38;;;;;;;;;10.00;8.75;;;;;19.22;44.67;101778.22;2070891;28;46127;-61
2023/05/27 00:27:39;;;;;;;;;10.60;9.20;;;;;19.20;44.33;101783.66;2065867;28;46416;-58
2023/05/27 00:28:39;;;;;;;;;10.67;7.00;;;;;19.18;44.91;101774.75;2068374;28;45331;-58
2023/05/27 00:29:40;;;;;;;;;11.00;9.00;;;;;19.16;44.49;101779.31;2071845;28;46140;-62
2023/05/27 00:30:40;;;;;;;;;7.75;7.25;;;;;19.15;44.58;101779.38;2070384;28;46474;-60
2023/05/27 00:31:41;;;;;;;;;8.00;7.00;;;;;19.13;44.66;101773.19;2071397;28;46270;-60
2023/05/27 00:32:41;;;;;;;;;9.75;8.00;;;;;19.11;44.51;101776.81;2071516;28;45910;-59
2023/05/27 00:33:43;;;;;;;;;10.75;9.25;;;;;19.11;44.80;101773.25;2071632;28;48155;-59
2023/05/27 00:34:45;;;;;;;;;9.00;9.00;;;;;19.08;44.82;101774.25;2071624;28;46439;-61
2023/05/27 00:35:45;;;;;;;;;7.80;7.80;;;;;19.08;44.74;101768.88;2071447;28;48272;-61
2023/05/27 00:36:45;;;;;;;;;7.75;6.00;;;;;19.07;44.71;101764.44;2072120;28;45560;-62
2023/05/27 00:37:46;;;;;;;;;9.00;9.00;;;;;19.07;44.79;101772.50;2071835;28;46747;-59
2023/05/27 00:38:46;;;;;;;;;10.00;10.00;;;;;19.06;44.96;101767.19;2071089;28;45873;-59
2023/05/27 00:39:46;;;;;;;;;8.75;8.75;;;;;19.05;44.45;101763.59;2066929;28;45768;-62
2023/05/27 00:40:52;;;;;;;;;9.00;9.00;;;;;19.05;44.46;101766.28;2072034;28;45809;-60
2023/05/27 00:41:53;;;;;;;;;10.60;9.40;;;;;19.03;44.43;101762.78;2073542;28;46130;-59
2023/05/27 00:42:53;;;;;;;;;8.60;8.60;;;;;19.03;44.52;101765.47;2073070;28;45973;-58
2023/05/27 00:43:56;;;;;;;;;8.00;6.67;;;;;19.03;44.38;101765.47;2064672;28;45826;-58
2023/05/27 00:44:56;;;;;;;;;8.60;8.20;;;;;19.02;44.52;101766.41;2064361;28;46393;-60
2023/05/27 00:45:56;;;;;;;;;8.33;8.00;;;;;19.02;44.35;101760.16;2066317;28;46244;-60
2023/05/27 00:46:57;;;;;;;;;9.25;8.00;;;;;19.01;44.57;101759.28;2072221;28;45601;-60
2023/05/27 00:48:01;;;;;;;;;6.00;5.75;;;;;19.01;44.42;101767.34;2072823;28;46862;-60
2023/05/27 00:49:02;;;;;;;;;10.20;8.40;;;;;19.01;44.53;101761.09;2073053;28;45958;-60
2023/05/27 00:50:03;;;;;;;;;10.50;9.50;;;;;19.01;44.81;101764.66;2063916;28;45561;-60
2023/05/27 00:51:03;;;;;;;;;8.50;6.75;;;;;19.01;44.56;101763.78;2063732;28;45873;-61
2023/05/27 00:52:05;;;;;;;;;11.00;9.75;;;;;19.02;44.33;101766.41;2064337;28;45043;-60
2023/05/27 00:53:05;;;;;;;;;10.20;10.20;;;;;19.00;44.59;101762.91;2063601;28;46604;-61
2023/05/27 00:54:07;;;;;;;;;8.25;7.00;;;;;19.00;44.61;101756.66;2063668;28;46492;-61
2023/05/27 00:55:08;;;;;;;;;8.00;8.00;;;;;18.99;44.51;101763.84;2055758;28;46244;-61
2023/05/27 00:56:10;;;;;;;;;13.25;10.75;;;;;19.00;44.61;101759.34;2068939;28;46290;-60
2023/05/27 00:57:10;;;;;;;;;8.40;8.40;;;;;18.99;44.60;101763.84;2072412;28;45797;-61
2023/05/27 00:58:11;;;;;;;;;9.00;9.00;;;;;18.98;44.46;101754.03;2063733;28;47290;-60
2023/05/27 00:59:11;;;;;;;;;8.50;7.75;;;;;18.97;44.33;101759.47;2064421;28;47179;-59
2023/05/27 01:00:13;;;;;;;;;10.00;9.50;;;;;18.96;44.40;101764.00;2064046;28;46932;-60
2023/05/27 01:01:13;;;;;;;;;9.80;9.20;;;;;18.94;44.73;101755.13;2063885;28;46144;-59
2023/05/27 01:02:14;;;;;;;;;7.50;6.75;;;;;18.95;44.41;101758.69;2063747;28;46788;-59
2023/05/27 01:03:16;;;;;;;;;7.80;7.20;;;;;18.93;44.61;101757.84;2063773;28;45377;-58
2023/05/27 01:04:17;;;;;;;;;8.60;7.00;;;;;18.93;44.49;101760.53;2055971;28;45618;-61
2023/05/27 01:05:18;;;;;;;;;9.20;6.20;;;;;18.91;44.44;101757.03;2056135;28;45328;-60
2023/05/27 01:06:36;;;;;;;;;8.25;8.25;;;;;18.91;44.74;101762.41;2064256;28;45580;-59
2023/05/27 01:08:11;;;;;;;;;8.75;8.00;;;;;18.88;44.51;101760.72;2056027;28;45907;-58
2023/05/27 01:09:24;;;;;;;;;7.00;7.00;;;;;18.87;44.42;101758.09;2039952;28;46769;-58
2023/05/27 01:10:25;;;;;;;;;8.20;6.40;;;;;18.86;44.69;101757.22;2039639;28;46721;-60
2023/05/27 01:11:34;;;;;;;;;4.00;4.00;;;;;18.84;44.65;101750.16;2039639;28;45851;-57
2023/05/27 01:13:00;;;;;;;;;11.00;9.80;;;;;18.80;44.51;101760.13;2039922;28;46457;-60
2023/05/27 01:14:07;;;;;;;;;9.50;9.25;;;;;18.78;44.59;101751.25;2040152;28;45833;-60
2023/05/27 01:15:09;;;;;;;;;10.00;8.00;;;;;18.75;44.62;101751.38;2039593;28;45393;-60
2023/05/27 01:16:12;;;;;;;;;7.60;7.20;;;;;18.74;44.74;101755.88;2040155;28;46736;-60
2023/05/27 01:17:15;;;;;;;;;7.60;6.80;;;;;18.74;44.31;101755.88;2039088;28;46463;-59
2023/05/27 01:18:16;;;;;;;;;8.40;7.40;;;;;18.73;44.55;101753.25;2039937;28;46071;-60
2023/05/27 01:19:30;;;;;;;;;10.00;9.25;;;;;18.72;44.29;101759.56;2039430;28;45645;-60
2023/05/27 01:20:31;;;;;;;;;8.60;8.60;;;;;18.70;44.54;101751.56;2039836;28;46000;-59
2023/05/27 01:21:36;;;;;;;;;6.50;6.50;;;;;18.69;44.50;101752.50;2039311;28;46621;-58
2023/05/27 01:22:41;;;;;;;;;6.20;5.80;;;;;18.68;44.52;101756.13;2039600;28;45974;-61
2023/05/27 01:23:42;;;;;;;;;7.75;7.25;;;;;18.66;44.30;101755.28;2040060;28;45580;-60
2023/05/27 01:24:42;;;;;;;;;9.00;7.20;;;;;18.64;44.66;101754.47;2040067;28;45797;-61
2023/05/27 01:25:42;;;;;;;;;8.33;8.33;;;;;18.66;44.49;101751.72;2040530;28;45717;-60
2023/05/27 01:26:43;;;;;;;;;9.33;8.67;;;;;18.65;44.69;101744.59;2032911;29;45610;-60
2023/05/27 01:27:44;;;;;;;;;9.25;6.50;;;;;18.63;44.38;101743.75;2031876;28;45981;-61
2023/05/27 01:28:45;;;;;;;;;6.75;6.75;;;;;18.63;44.53;101754.50;2055674;28;46364;-58
2023/05/27 01:29:45;;;;;;;;;9.00;6.00;;;;;18.61;44.67;101751.88;2056213;28;45737;-60
2023/05/27 01:30:46;;;;;;;;;11.00;9.00;;;;;18.60;44.27;101751.94;2056502;28;45746;-60
2023/05/27 01:32:04;;;;;;;;;7.00;6.00;;;;;18.57;44.34;101747.56;2047402;28;46642;-60
2023/05/27 01:33:12;;;;;;;;;8.00;8.00;;;;;18.57;44.42;101749.38;2058030;28;45223;-60
2023/05/27 01:34:18;;;;;;;;;9.00;8.25;;;;;18.54;44.73;101761.09;2061578;28;46941;-59
2023/05/27 01:35:31;;;;;;;;;7.75;6.25;;;;;18.53;44.45;101754.84;2056138;28;45787;-60
2023/05/27 01:36:39;;;;;;;;;8.00;8.00;;;;;18.51;44.39;101745.97;2055700;28;46129;-60
2023/05/27 01:37:42;;;;;;;;;9.00;8.40;;;;;18.51;44.67;101742.41;2056410;28;45930;-61
2023/05/27 01:38:47;;;;;;;;;11.60;11.60;;;;;18.51;44.68;101747.78;2056419;28;46052;-61
2023/05/27 01:39:49;;;;;;;;;8.50;8.25;;;;;18.51;44.43;101747.78;2056421;28;45863;-61
2023/05/27 01:40:50;;;;;;;;;8.75;8.75;;;;;18.52;44.49;101750.41;2055656;28;46137;-61
2023/05/27 01:41:52;;;;;;;;;7.67;7.67;;;;;18.49;44.27;101744.28;2055392;28;46419;-59
2023/05/27 01:42:53;;;;;;;;;8.75;7.25;;;;;18.48;44.49;101743.41;2055261;28;45111;-58
2023/05/27 01:43:54;;;;;;;;;10.25;9.00;;;;;18.48;44.42;101745.22;2055871;28;46271;-59
2023/05/27 01:44:56;;;;;;;;;7.25;7.25;;;;;18.47;44.34;101743.47;2055548;28;45585;-60
2023/05/27 01:45:56;;;;;;;;;9.25;9.25;;;;;18.46;44.41;101741.72;2055998;28;45831;-60
2023/05/27 01:47:01;;;;;;;;;7.00;7.00;;;;;18.45;44.11;101743.53;2060867;28;46273;-60
2023/05/27 01:48:01;;;;;;;;;9.00;6.75;;;;;18.44;44.65;101738.22;2070988;28;46339;-59
2023/05/27 01:49:02;;;;;;;;;9.25;7.50;;;;;18.43;44.43;101740.03;2072483;28;45614;-59
2023/05/27 01:50:03;;;;;;;;;7.80;6.80;;;;;18.42;44.61;101748.13;2072836;28;46321;-60
2023/05/27 01:51:05;;;;;;;;;7.40;7.00;;;;;18.41;44.58;101746.38;2072769;28;46578;-61
2023/05/27 01:52:05;;;;;;;;;7.50;6.75;;;;;18.39;44.33;101737.50;2072094;28;46218;-61
2023/05/27 01:53:06;;;;;;;;;9.67;7.00;;;;;18.37;44.37;101748.31;2072164;28;45427;-59
2023/05/27 01:54:06;;;;;;;;;8.00;8.00;;;;;18.36;44.40;101749.25;2072992;28;45708;-58
2023/05/27 01:55:07;;;;;;;;;11.00;7.67;;;;;18.36;44.61;101746.56;2071835;28;45385;-58
2023/05/27 01:56:08;;;;;;;;;8.00;6.25;;;;;18.37;44.64;101742.06;2072040;28;46555;-60
2023/05/27 01:57:08;;;;;;;;;5.33;5.33;;;;;18.37;44.10;101739.38;2080712;28;45631;-60
2023/05/27 01:58:08;;;;;;;;;10.00;8.67;;;;;18.36;44.41;101738.50;2079915;28;45076;-60
2023/05/27 01:59:09;;;;;;;;;8.00;7.67;;;;;18.35;44.50;101742.13;2072642;28;46283;-59
2023/05/27 02:00:10;;;;;;;;;8.00;8.00;;;;;18.35;44.21;101742.13;2072920;28;46487;-59
2023/05/27 02:01:10;;;;;;;;;9.00;8.00;;;;;18.34;44.32;101747.56;2072825;28;45327;-59
2023/05/27 02:02:11;;;;;;;;;6.67;6.33;;;;;18.33;44.38;101737.75;2072576;28;45168;-61
2023/05/27 02:03:11;;;;;;;;;7.25;7.00;;;;;18.33;44.74;101741.31;2071180;28;46394;-61
2023/05/27 02:04:11;;;;;;;;;6.75;6.75;;;;;18.33;44.32;101741.31;2071625;28;46508;-61
2023/05/27 02:05:12;;;;;;;;;10.50;7.00;;;;;18.32;44.37;101753.00;2072793;28;46462;-61
2023/05/27 02:06:12;;;;;;;;;6.75;6.00;;;;;18.33;43.98;101745.81;2063963;28;45523;-59
2023/05/27 02:07:12;;;;;;;;;10.50;8.75;;;;;18.32;44.33;101747.63;2063547;28;46756;-60
2023/05/27 02:08:13;;;;;;;;;7.00;7.00;;;;;18.30;44.69;101740.56;2072799;28;45954;-61
2023/05/27 02:09:13;;;;;;;;;6.75;6.75;;;;;18.30;44.40;101751.31;2073487;28;45550;-62
2023/05/27 02:10:13;;;;;;;;;5.75;5.00;;;;;18.29;44.66;101747.72;2072904;28;46037;-61
2023/05/27 02:11:14;;;;;;;;;7.33;6.67;;;;;18.30;44.37;101745.94;2072299;28;47901;-61
2023/05/27 02:12:14;;;;;;;;;11.33;8.33;;;;;18.29;44.44;101745.03;2072488;28;46796;-60
2023/05/27 02:13:15;;;;;;;;;9.00;7.33;;;;;18.31;44.46;101750.38;2072047;28;46483;-62
2023/05/27 02:14:15;;;;;;;;;11.50;9.50;;;;;18.32;44.61;101750.31;2072612;28;46754;-61
2023/05/27 02:15:15;;;;;;;;;7.33;7.33;;;;;18.34;44.41;101750.25;2072211;28;44972;-62
2023/05/27 02:16:16;;;;;;;;;10.25;8.75;;;;;18.34;44.42;101737.69;2071593;28;46284;-59
2023/05/27 02:17:17;;;;;;;;;8.33;7.00;;;;;18.34;44.64;101743.06;2072766;28;45969;-61
2023/05/27 02:18:20;;;;;;;;;7.50;7.50;;;;;18.35;44.33;101743.94;2072471;28;45806;-62
2023/05/27 02:19:21;;;;;;;;;8.25;8.00;;;;;18.36;44.35;101743.00;2064282;28;46448;-61
2023/05/27 02:20:22;;;;;;;;;8.00;7.00;;;;;18.35;44.43;101742.13;2072617;28;45838;-62
2023/05/27 02:21:22;;;;;;;;;8.75;7.00;;;;;18.36;44.41;101751.94;2072134;28;46583;-60
2023/05/27 02:22:23;;;;;;;;;7.25;7.25;;;;;18.36;44.31;101746.56;2072658;28;45606;-61
2023/05/27 02:23:23;;;;;;;;;10.25;7.50;;;;;18.34;44.14;101743.06;2072637;28;45471;-60
2023/05/27 02:24:23;;;;;;;;;6.25;6.25;;;;;18.34;44.49;101743.06;2072220;28;46340;-61
2023/05/27 02:25:24;;;;;;;;;13.00;7.00;;;;;18.35;44.48;101746.63;2072346;28;46583;-62
2023/05/27 02:26:24;;;;;;;;;12.50;8.00;;;;;18.35;44.47;101746.63;2072188;28;45448;-62
2023/05/27 02:27:25;;;;;;;;;6.67;6.67;;;;;18.35;44.43;101742.13;2072246;28;47313;-60
2023/05/27 02:28:25;;;;;;;;;7.00;6.00;;;;;18.34;44.29;101742.19;2072246;28;46284;-61
2023/05/27 02:29:26;;;;;;;;;9.75;9.25;;;;;18.34;44.07;101736.81;2072052;28;45999;-62
2023/05/27 02:30:27;;;;;;;;;8.50;8.50;;;;;18.33;44.10;101752.06;2072976;28;45851;-62
2023/05/27 02:31:27;;;;;;;;;7.25;7.25;;;;;18.34;44.01;101737.69;2072087;28;46849;-61
2023/05/27 02:32:27;;;;;;;;;8.25;7.75;;;;;18.34;44.08;101737.69;2079716;28;46073;-61
2023/05/27 02:33:27;;;;;;;;;8.33;6.67;;;;;18.34;44.21;101740.38;2080054;28;46312;-61
2023/05/27 02:34:28;;;;;;;;;8.25;6.50;;;;;18.33;44.29;101738.63;2080436;28;45689;-59
2023/05/27 02:35:28;;;;;;;;;6.75;5.00;;;;;18.33;44.23;101735.06;2071265;28;47029;-60
2023/05/27 02:36:28;;;;;;;;;7.67;7.67;;;;;18.33;44.05;101744.00;2072090;28;45908;-61
2023/05/27 02:37:29;;;;;;;;;7.00;7.00;;;;;18.32;43.94;101736.88;2072246;28;45220;-61
2023/05/27 02:38:29;;;;;;;;;7.00;7.00;;;;;18.32;44.05;101736.00;2072626;28;45659;-61
2023/05/27 02:39:30;;;;;;;;;8.67;8.00;;;;;18.30;43.91;101733.38;2066686;28;45400;-62
2023/05/27 02:40:30;;;;;;;;;8.00;7.00;;;;;18.29;44.20;101728.91;2064082;28;46103;-61
2023/05/27 02:41:30;;;;;;;;;8.00;7.00;;;;;18.28;44.24;101734.34;2071619;28;46315;-61
2023/05/27 02:42:31;;;;;;;;;6.75;6.25;;;;;18.28;44.18;101729.84;2072061;28;46782;-62
2023/05/27 02:43:31;;;;;;;;;9.25;8.25;;;;;18.27;44.08;101729.91;2072379;28;45838;-61
2023/05/27 02:44:31;;;;;;;;;6.67;6.33;;;;;18.26;43.91;101731.72;2072601;28;45702;-60
2023/05/27 02:45:32;;;;;;;;;8.67;7.33;;;;;18.27;44.15;101729.91;2072112;28;46404;-62
2023/05/27 02:46:32;;;;;;;;;9.00;7.67;;;;;18.26;44.00;101722.78;2072513;28;45404;-62
2023/05/27 02:47:33;;;;;;;;;9.00;7.50;;;;;18.26;44.00;101726.34;2071743;28;45522;-61
2023/05/27 02:48:33;;;;;;;;;7.67;7.00;;;;;18.26;43.98;101729.03;2071567;28;45638;-62
2023/05/27 02:49:33;;;;;;;;;7.50;6.25;;;;;18.26;43.92;101720.09;2072611;28;45530;-59
2023/05/27 02:50:34;;;;;;;;;9.25;9.00;;;;;18.24;43.85;101718.34;2072176;28;46725;-61
2023/05/27 02:51:34;;;;;;;;;9.25;8.00;;;;;18.24;43.96;101718.34;2072082;28;46843;-62
2023/05/27 02:52:35;;;;;;;;;7.25;7.00;;;;;18.23;43.90;101723.78;2072890;28;46523;-61
2023/05/27 02:53:35;;;;;;;;;7.33;7.33;;;;;18.22;43.86;101713.97;2073006;28;46322;-58
2023/05/27 02:54:35;;;;;;;;;7.50;6.25;;;;;18.21;43.76;101717.59;2073594;28;45852;-61
2023/05/27 02:55:36;;;;;;;;;7.00;7.00;;;;;18.20;43.52;101724.78;2072581;28;45434;-61
2023/05/27 02:56:36;;;;;;;;;9.75;7.50;;;;;18.20;43.96;101722.09;2072186;28;45783;-61
2023/05/27 02:57:36;;;;;;;;;7.00;7.00;;;;;18.18;43.86;101717.72;2072094;28;45701;-61
2023/05/27 02:58:36;;;;;;;;;5.00;5.00;;;;;18.16;43.84;101719.56;2072339;28;45727;-61
2023/05/27 02:59:37;;;;;;;;;8.00;7.00;;;;;18.15;43.85;101720.50;2073035;28;45545;-61
2023/05/27 03:00:37;;;;;;;;;6.33;6.33;;;;;18.14;43.76;101719.63;2072966;28;45762;-61
2023/05/27 03:01:37;;;;;;;;;7.75;7.75;;;;;18.13;43.77;101723.25;2072638;28;45943;-61
2023/05/27 03:02:38;;;;;;;;;7.75;6.75;;;;;18.12;43.89;101723.31;2072460;28;48654;-61
2023/05/27 03:03:38;;;;;;;;;8.75;8.75;;;;;18.11;43.63;101719.72;2071295;28;46707;-60
2023/05/27 03:04:39;;;;;;;;;6.75;6.75;;;;;18.08;43.66;101725.22;2071675;28;46722;-62
2023/05/27 03:05:39;;;;;;;;;5.75;5.75;;;;;18.07;43.76;101726.16;2072021;28;45204;-61
2023/05/27 03:06:40;;;;;;;;;7.00;5.33;;;;;18.07;43.84;101725.28;2072040;28;45941;-62
2023/05/27 03:07:41;;;;;;;;;8.75;7.75;;;;;18.05;43.92;101725.34;2072435;28;46140;-59
2023/05/27 03:08:41;;;;;;;;;9.00;7.00;;;;;18.05;43.60;101730.72;2071031;28;46993;-62
2023/05/27 03:09:41;;;;;;;;;8.00;7.00;;;;;18.05;43.75;101725.34;2071588;28;46392;-60
2023/05/27 03:10:42;;;;;;;;;10.33;8.00;;;;;18.03;43.55;101727.19;2066402;28;46295;-61
2023/05/27 03:11:42;;;;;;;;;8.50;8.50;;;;;18.04;43.92;101722.69;2072360;28;45571;-61
2023/05/27 03:12:42;;;;;;;;;8.00;8.00;;;;;18.03;43.58;101724.50;2072444;28;45534;-60
2023/05/27 03:13:43;;;;;;;;;10.00;9.75;;;;;18.02;43.80;101725.44;2072340;28;45598;-61
2023/05/27 03:14:43;;;;;;;;;6.75;6.75;;;;;18.02;43.81;101722.75;2071728;28;46627;-62
2023/05/27 03:15:43;;;;;;;;;8.00;8.00;;;;;18.01;43.33;101721.00;2071661;28;46978;-61
2023/05/27 03:16:45;;;;;;;;;7.25;7.25;;;;;18.01;43.70;101722.81;2071378;28;46567;-61
2023/05/27 03:17:45;;;;;;;;;8.60;8.00;;;;;17.98;43.80;101723.81;2072166;28;46294;-62
2023/05/27 03:18:46;;;;;;;;;6.00;6.00;;;;;17.97;43.81;101723.88;2072435;28;46310;-60
2023/05/27 03:19:46;;;;;;;;;7.75;7.75;;;;;17.96;43.80;101714.94;2071895;28;45902;-61
2023/05/27 03:20:47;;;;;;;;;7.25;6.00;;;;;17.96;43.70;101714.06;2072167;28;45964;-61
2023/05/27 03:21:47;;;;;;;;;9.00;9.00;;;;;17.94;43.70;101716.81;2071617;28;46007;-61
2023/05/27 03:22:48;;;;;;;;;8.00;7.67;;;;;17.94;43.54;101722.19;2071005;28;46777;-61
2023/05/27 03:23:48;;;;;;;;;6.67;5.67;;;;;17.92;43.78;101716.88;2072335;28;45747;-61
2023/05/27 03:24:49;;;;;;;;;8.00;7.00;;;;;17.92;43.80;101724.91;2072655;28;45909;-62
2023/05/27 03:25:50;;;;;;;;;7.50;7.50;;;;;17.91;43.65;101717.81;2079303;28;47069;-61
2023/05/27 03:26:51;;;;;;;;;7.33;7.00;;;;;17.91;43.85;101720.47;2079532;28;46674;-61
2023/05/27 03:27:53;;;;;;;;;8.80;8.20;;;;;17.90;43.88;101713.31;2069668;28;46372;-62
2023/05/27 03:28:53;;;;;;;;;7.60;7.00;;;;;17.90;43.79;101715.13;2071911;28;45968;-62
2023/05/27 03:29:53;;;;;;;;;9.33;9.33;;;;;17.90;43.50;101717.81;2071836;28;45895;-59
2023/05/27 03:30:55;;;;;;;;;4.67;4.67;;;;;17.89;43.71;101711.56;2071912;28;46454;-61
2023/05/27 03:31:56;;;;;;;;;9.60;9.60;;;;;17.89;43.66;101716.94;2072178;28;45333;-60
2023/05/27 03:32:56;;;;;;;;;7.00;6.00;;;;;17.88;43.74;101709.81;2072320;28;46065;-59
2023/05/27 03:33:56;;;;;;;;;6.00;6.00;;;;;17.87;43.83;101712.56;2072036;28;45439;-62
2023/05/27 03:34:57;;;;;;;;;5.67;4.67;;;;;17.85;43.70;101715.31;2071030;28;45787;-62
2023/05/27 03:35:57;;;;;;;;;9.50;7.00;;;;;17.84;43.77;101715.38;2071795;28;45690;-61
2023/05/27 03:36:57;;;;;;;;;11.00;10.00;;;;;17.83;43.65;101717.19;2072345;28;45798;-60
2023/05/27 03:37:58;;;;;;;;;7.67;7.00;;;;;17.84;43.89;101721.63;2072194;28;45953;-61
2023/05/27 03:38:58;;;;;;;;;6.00;5.33;;;;;17.83;43.61;101719.00;2071959;28;45805;-61
2023/05/27 03:39:58;;;;;;;;;9.00;7.00;;;;;17.82;43.84;101710.06;2067619;28;45652;-61
2023/05/27 03:40:59;;;;;;;;;8.25;8.25;;;;;17.82;43.81;101715.44;2072177;28;45688;-60
2023/05/27 03:42:00;;;;;;;;;9.00;8.00;;;;;17.81;43.82;101713.69;2071997;28;45702;-60
2023/05/27 03:43:00;;;;;;;;;7.80;7.80;;;;;17.81;43.17;101710.13;2071777;28;46398;-62
2023/05/27 03:44:01;;;;;;;;;7.00;5.50;;;;;17.81;43.76;101715.50;2072451;28;46053;-61
2023/05/27 03:45:02;;;;;;;;;10.00;7.25;;;;;17.79;43.65;101712.88;2071908;28;45951;-61
2023/05/27 03:46:02;;;;;;;;;6.80;6.80;;;;;17.79;43.62;101703.94;2072543;28;47119;-59
2023/05/27 03:47:02;;;;;;;;;8.00;8.00;;;;;17.78;43.51;101710.22;2072250;28;45918;-61
2023/05/27 03:48:03;;;;;;;;;9.00;7.33;;;;;17.76;43.71;101710.28;2070524;28;45975;-61
2023/05/27 03:49:03;;;;;;;;;7.33;7.33;;;;;17.76;43.56;101709.41;2071261;28;45468;-62
2023/05/27 03:50:05;;;;;;;;;9.25;8.75;;;;;17.75;43.90;101703.16;2071771;28;46869;-63
2023/05/27 03:51:05;;;;;;;;;8.40;6.40;;;;;17.74;43.68;101714.81;2071663;28;46411;-64
2023/05/27 03:52:06;;;;;;;;;8.67;7.00;;;;;17.73;43.65;101713.06;2071859;28;45228;-62
2023/05/27 03:53:06;;;;;;;;;11.50;8.50;;;;;17.73;43.64;101713.06;2071846;28;45770;-62
2023/05/27 03:54:06;;;;;;;;;7.67;7.00;;;;;17.72;44.01;101714.00;2072281;28;45290;-62
2023/05/27 03:55:07;;;;;;;;;7.00;7.00;;;;;17.73;43.81;101714.88;2071233;28;45460;-64
2023/05/27 03:56:07;;;;;;;;;8.50;7.75;;;;;17.71;43.93;101708.69;2071467;28;46297;-60
2023/05/27 03:57:08;;;;;;;;;7.50;7.50;;;;;17.72;44.00;101713.13;2071785;28;45804;-62
2023/05/27 03:58:08;;;;;;;;;9.25;9.25;;;;;17.71;43.98;101714.94;2071504;28;45702;-63
2023/05/27 03:59:09;;;;;;;;;9.00;6.67;;;;;17.71;43.43;101716.75;2072122;28;45057;-59
2023/05/27 04:00:13;;;;;;;;;5.67;5.67;;;;;17.71;44.12;101714.06;2072071;28;45858;-62
2023/05/27 04:01:13;;;;;;;;;6.80;6.80;;;;;17.69;43.76;101715.94;2071091;28;46071;-61
2023/05/27 04:02:14;;;;;;;;;10.25;9.00;;;;;17.69;44.11;101719.50;2071938;28;45880;-61
2023/05/27 04:03:14;;;;;;;;;7.25;6.50;;;;;17.70;43.78;101720.38;2062780;28;46109;-61
2023/05/27 04:04:15;;;;;;;;;10.00;7.50;;;;;17.70;43.75;101715.00;2062558;28;46538;-63
2023/05/27 04:05:16;;;;;;;;;7.00;5.67;;;;;17.69;43.73;101713.25;2071536;28;46271;-62
2023/05/27 04:06:16;;;;;;;;;7.60;7.60;;;;;17.68;44.02;101711.47;2072457;28;46170;-61
2023/05/27 04:07:17;;;;;;;;;8.00;7.50;;;;;17.68;43.92;101714.16;2072080;28;45962;-62
2023/05/27 04:08:18;;;;;;;;;8.60;7.60;;;;;17.68;43.97;101714.16;2072488;28;45982;-59
2023/05/27 04:09:18;;;;;;;;;8.25;7.00;;;;;17.68;44.01;101716.81;2072999;28;45500;-58
2023/05/27 04:10:19;;;;;;;;;9.25;7.75;;;;;17.67;44.09;101715.94;2073342;28;45779;-60
2023/05/27 04:11:19;;;;;;;;;7.00;7.00;;;;;17.66;44.09;101714.19;2072672;28;46323;-61
2023/05/27 04:12:20;;;;;;;;;7.00;7.00;;;;;17.67;43.89;101720.44;2071634;28;45623;-60
2023/05/27 04:13:21;;;;;;;;;8.75;8.75;;;;;17.68;44.06;101716.81;2063545;28;44972;-59
2023/05/27 04:14:21;;;;;;;;;6.67;6.67;;;;;17.68;44.02;101717.69;2071572;28;46691;-61
2023/05/27 04:15:21;;;;;;;;;8.33;8.33;;;;;17.69;43.73;101713.25;2070884;28;45595;-60
2023/05/27 04:16:30;;;;;;;;;10.25;8.00;;;;;17.70;43.86;101720.38;2071820;28;45454;-61
2023/05/27 04:17:31;;;;;;;;;7.00;5.60;;;;;17.69;43.79;101719.50;2071022;28;45238;-62
2023/05/27 04:18:31;;;;;;;;;5.25;5.25;;;;;17.68;43.96;101723.06;2071470;28;45620;-59
2023/05/27 04:19:32;;;;;;;;;8.25;6.50;;;;;17.68;43.70;101711.47;2071540;28;45909;-60
2023/05/27 04:20:41;;;;;;;;;9.20;9.20;;;;;17.67;43.67;101718.63;2071332;28;46770;-59
2023/05/27 04:21:42;;;;;;;;;6.50;6.50;;;;;17.66;43.54;101719.56;2071550;28;46504;-60
2023/05/27 04:22:43;;;;;;;;;8.00;6.00;;;;;17.65;43.95;101720.47;2071964;28;46351;-61
2023/05/27 04:23:44;;;;;;;;;8.20;8.20;;;;;17.65;44.01;101724.03;2071549;28;45865;-61
2023/05/27 04:24:44;;;;;;;;;7.50;7.50;;;;;17.64;43.90;101722.28;2071909;28;45144;-61
2023/05/27 04:25:44;;;;;;;;;8.33;6.00;;;;;17.65;43.85;101731.22;2079113;28;46789;-62
2023/05/27 04:26:45;;;;;;;;;7.67;7.00;;;;;17.63;43.63;101723.22;2079403;28;45561;-59
2023/05/27 04:27:46;;;;;;;;;6.00;6.00;;;;;17.62;44.37;101725.97;2068511;28;46596;-60
2023/05/27 04:28:48;;;;;;;;;9.75;8.00;;;;;17.61;44.05;101725.09;2071126;28;46619;-61
2023/05/27 04:29:48;;;;;;;;;9.20;7.80;;;;;17.58;43.93;101718.94;2063123;28;46770;-62
2023/05/27 04:30:50;;;;;;;;;8.00;8.00;;;;;17.58;43.94;101724.31;2067965;28;44962;-65
2023/05/27 04:31:50;;;;;;;;;10.20;7.80;;;;;17.59;44.12;101726.06;2072152;28;46806;-61
2023/05/27 04:32:52;;;;;;;;;9.33;7.33;;;;;17.57;43.76;101723.44;2072458;28;46105;-60
2023/05/27 04:33:54;;;;;;;;;9.80;8.60;;;;;17.56;43.94;101719.00;2072118;28;46829;-61
2023/05/27 04:34:54;;;;;;;;;7.20;5.60;;;;;17.56;43.86;101715.44;2072144;28;45682;-61
2023/05/27 04:35:56;;;;;;;;;8.00;8.00;;;;;17.54;43.96;101720.88;2071662;28;46295;-61
2023/05/27 04:36:56;;;;;;;;;9.80;8.00;;;;;17.54;44.10;101723.56;2067485;28;46949;-60
2023/05/27 04:37:58;;;;;;;;;9.50;9.50;;;;;17.55;44.29;101717.25;2071383;28;45533;-61
2023/05/27 04:39:01;;;;;;;;;9.20;8.40;;;;;17.54;44.10;101728.03;2071479;28;45923;-58
2023/05/27 04:40:08;;;;;;;;;8.00;6.00;;;;;17.53;44.02;101720.91;2068755;28;46807;-61
2023/05/27 04:41:08;;;;;;;;;8.60;6.80;;;;;17.53;44.08;101726.25;2071790;28;45587;-61
2023/05/27 04:42:10;;;;;;;;;7.00;7.00;;;;;17.52;44.38;101724.50;2070854;28;45704;-61
2023/05/27 04:43:14;;;;;;;;;7.20;7.00;;;;;17.54;44.45;101725.38;2070830;28;46804;-60
2023/05/27 04:44:14;;;;;;;;;8.40;6.00;;;;;17.53;44.36;101715.53;2079377;28;45772;-61
2023/05/27 04:45:15;;;;;;;;;7.00;6.75;;;;;17.53;44.16;101712.84;2079406;28;45220;-61